Time;durP1;ratioP1;P1;durP2;ratioP2;P2;SDS_P1;SDS_P2;PMS_P1;PMS_P2;Temp;Humidity;BMP_temperature;BMP_pressure;BME280_temperature;BME280_humidity;BME280_pressure;Samples;Min_cycle;Max_cycle;Signal;HPM_P1;HPM_P2
2022/02/16 00:00:26;;;;;;;7.85;3.65;;;6.80;99.70;;;;;;5013958;28;20061;-53
2022/02/16 00:02:52;;;;;;;5.18;3.00;;;6.90;99.60;;;;;;5015605;28;20517;-52
2022/02/16 00:05:18;;;;;;;5.00;3.38;;;6.90;99.50;;;;;;5021425;28;20060;-55
2022/02/16 00:07:44;;;;;;;5.82;3.38;;;7.00;99.40;;;;;;5029659;28;20502;-56
2022/02/16 00:10:11;;;;;;;6.85;3.53;;;7.00;99.40;;;;;;5015861;28;20057;-55
2022/02/16 00:12:37;;;;;;;8.95;3.35;;;7.00;99.40;;;;;;4994899;28;20116;-55
2022/02/16 00:15:05;;;;;;;5.25;3.10;;;7.00;99.60;;;;;;5016472;28;20092;-53
2022/02/16 00:17:31;;;;;;;7.90;4.18;;;7.00;99.50;;;;;;5013923;28;20117;-53
2022/02/16 00:19:56;;;;;;;9.48;3.65;;;7.10;99.40;;;;;;5015641;28;20080;-60
2022/02/16 00:22:22;;;;;;;5.32;3.50;;;7.10;99.50;;;;;;5015697;28;20113;-58
2022/02/16 00:24:47;;;;;;;5.57;3.35;;;7.00;99.50;;;;;;5016469;28;20069;-55
2022/02/16 00:27:13;;;;;;;6.10;3.00;;;7.00;99.70;;;;;;5015497;28;20038;-53
2022/02/16 00:29:38;;;;;;;4.75;3.22;;;7.10;99.60;;;;;;5015976;28;20545;-49
2022/02/16 00:32:04;;;;;;;5.85;3.22;;;7.10;99.60;;;;;;5015036;28;20505;-53
2022/02/16 00:34:30;;;;;;;4.90;3.40;;;7.00;99.80;;;;;;5012033;28;20505;-54
2022/02/16 00:36:56;;;;;;;5.93;3.35;;;7.00;99.80;;;;;;5015580;28;20034;-54
2022/02/16 00:39:22;;;;;;;5.43;3.28;;;7.10;99.80;;;;;;5015805;28;20080;-54
2022/02/16 00:41:48;;;;;;;4.15;3.10;;;7.00;99.90;;;;;;5015563;28;20026;-53
2022/02/16 00:44:13;;;;;;;5.95;3.25;;;7.00;99.90;;;;;;5014784;28;20030;-54
2022/02/16 00:46:39;;;;;;;6.85;3.20;;;7.00;99.90;;;;;;5013570;28;20033;-53
2022/02/16 00:49:04;;;;;;;4.13;3.30;;;7.00;99.90;;;;;;5015042;28;20030;-53
2022/02/16 00:51:30;;;;;;;6.07;3.70;;;7.00;99.90;;;;;;5014825;28;20045;-48
2022/02/16 00:53:55;;;;;;;4.72;3.55;;;7.00;99.90;;;;;;5015155;28;20033;-54
2022/02/16 00:56:21;;;;;;;5.90;3.45;;;7.00;99.90;;;;;;5014824;28;20120;-52
2022/02/16 00:58:47;;;;;;;6.53;3.78;;;7.00;99.90;;;;;;5013395;28;20053;-52
2022/02/16 01:01:12;;;;;;;7.25;3.30;;;7.00;99.90;;;;;;5013689;28;20034;-53
2022/02/16 01:03:38;;;;;;;6.43;3.70;;;7.10;99.90;;;;;;5012183;28;20037;-54
2022/02/16 01:06:04;;;;;;;6.30;3.97;;;7.00;99.90;;;;;;5012914;28;20037;-53
2022/02/16 01:08:30;;;;;;;5.75;3.85;;;7.00;99.90;;;;;;5013730;28;20034;-50
2022/02/16 01:10:55;;;;;;;5.28;3.72;;;7.00;99.90;;;;;;5013294;28;20030;-49
2022/02/16 01:13:24;;;;;;;6.85;3.80;;;7.00;99.90;;;;;;5014849;28;20041;-50
2022/02/16 01:15:50;;;;;;;5.15;4.15;;;7.00;99.90;;;;;;5014516;28;20046;-53
2022/02/16 01:18:16;;;;;;;7.75;4.07;;;6.90;99.90;;;;;;5014715;28;20026;-53
2022/02/16 01:20:42;;;;;;;8.40;4.07;;;7.00;99.90;;;;;;5015233;28;20088;-59
2022/02/16 01:23:08;;;;;;;7.82;4.20;;;7.00;99.90;;;;;;5012842;28;20524;-55
2022/02/16 01:25:34;;;;;;;6.55;3.65;;;7.00;99.90;;;;;;5015219;28;20030;-52
2022/02/16 01:28:00;;;;;;;5.93;4.03;;;7.10;99.90;;;;;;5015443;28;20026;-53
2022/02/16 01:30:27;;;;;;;4.75;3.80;;;7.10;99.90;;;;;;4999676;28;20038;-59
2022/02/16 01:32:52;;;;;;;6.20;4.35;;;7.00;99.90;;;;;;5018599;28;20048;-54
2022/02/16 01:35:18;;;;;;;7.05;3.75;;;6.90;99.90;;;;;;5017273;28;20034;-55
2022/02/16 01:37:44;;;;;;;4.93;3.47;;;6.90;99.90;;;;;;5018063;28;20390;-51
2022/02/16 01:40:10;;;;;;;7.30;4.00;;;6.90;99.90;;;;;;5016169;28;20120;-51
2022/02/16 01:42:35;;;;;;;5.97;4.13;;;6.90;99.90;;;;;;5022029;28;20092;-51
2022/02/16 01:45:01;;;;;;;6.22;3.83;;;6.80;99.90;;;;;;5016825;28;20041;-56
2022/02/16 01:47:27;;;;;;;4.55;3.53;;;6.80;99.90;;;;;;5024176;28;20042;-50
2022/02/16 01:49:52;;;;;;;5.43;3.63;;;6.90;99.90;;;;;;5003206;28;20448;-55
2022/02/16 01:52:18;;;;;;;4.80;4.10;;;6.90;99.90;;;;;;5014958;28;20441;-56
2022/02/16 01:54:45;;;;;;;5.78;4.10;;;6.90;99.90;;;;;;5025918;28;20021;-57
2022/02/16 01:57:10;;;;;;;4.97;3.50;;;6.90;99.90;;;;;;4999483;28;20061;-56
2022/02/16 01:59:37;;;;;;;6.80;3.83;;;6.90;99.90;;;;;;5013500;28;20469;-53
2022/02/16 02:02:03;;;;;;;6.70;4.22;;;6.80;99.90;;;;;;5012980;28;20125;-52
2022/02/16 02:04:28;;;;;;;5.07;3.70;;;6.80;99.90;;;;;;5016495;28;20109;-56
2022/02/16 02:06:54;;;;;;;5.20;4.15;;;6.80;99.90;;;;;;5018637;28;20120;-53
2022/02/16 02:09:19;;;;;;;5.50;4.00;;;6.80;99.90;;;;;;5026799;28;20042;-56
2022/02/16 02:11:45;;;;;;;5.15;3.55;;;6.70;99.90;;;;;;5026944;28;20415;-55
2022/02/16 02:14:11;;;;;;;4.53;3.55;;;6.70;99.90;;;;;;5021462;28;20033;-51
2022/02/16 02:16:40;;;;;;;5.85;3.90;;;6.80;99.90;;;;;;5016392;28;20053;-52
2022/02/16 02:19:07;;;;;;;7.45;3.95;;;6.70;99.90;;;;;;5024236;28;20112;-50
2022/02/16 02:21:33;;;;;;;5.47;4.07;;;6.70;99.90;;;;;;5023349;28;20051;-53
2022/02/16 02:23:59;;;;;;;5.55;3.88;;;6.70;99.90;;;;;;5013026;28;20030;-55
2022/02/16 02:26:25;;;;;;;8.25;3.92;;;6.70;99.90;;;;;;5012761;28;20041;-52
2022/02/16 02:28:51;;;;;;;10.63;3.88;;;6.70;99.90;;;;;;5012356;28;20038;-54
2022/02/16 02:31:37;;;;;;;8.70;4.32;;;6.80;99.90;;;;;;5013049;28;21535;-52
2022/02/16 02:34:04;;;;;;;6.70;4.07;;;6.70;99.90;;;;;;5010696;28;20034;-55
2022/02/16 02:36:30;;;;;;;7.07;3.58;;;6.60;99.90;;;;;;5012506;28;20092;-54
2022/02/16 02:38:56;;;;;;;9.52;3.92;;;6.60;99.90;;;;;;5012027;28;20037;-54
2022/02/16 02:41:22;;;;;;;5.95;3.80;;;6.60;99.90;;;;;;5011697;28;20389;-51
2022/02/16 02:43:48;;;;;;;6.20;3.83;;;6.60;99.90;;;;;;5011636;28;20029;-52
2022/02/16 02:46:15;;;;;;;6.07;3.50;;;6.60;99.90;;;;;;5011810;28;20091;-55
2022/02/16 02:48:42;;;;;;;4.72;3.72;;;6.60;99.90;;;;;;5012383;28;20029;-55
2022/02/16 02:51:08;;;;;;;7.95;4.15;;;6.60;99.90;;;;;;5011966;28;20050;-52
2022/02/16 02:53:34;;;;;;;5.15;3.38;;;6.60;99.90;;;;;;5016966;28;20512;-55
2022/02/16 02:56:00;;;;;;;6.63;3.60;;;6.60;99.90;;;;;;5011733;28;20030;-54
2022/02/16 02:58:26;;;;;;;7.72;3.90;;;6.60;99.90;;;;;;5012106;28;20434;-56
2022/02/16 03:00:52;;;;;;;6.28;3.70;;;6.50;99.90;;;;;;5011972;28;20076;-56
2022/02/16 03:03:18;;;;;;;5.00;3.40;;;6.50;99.90;;;;;;5012108;28;20030;-54
2022/02/16 03:05:44;;;;;;;4.38;3.22;;;6.60;99.90;;;;;;4994706;28;20096;-52
2022/02/16 03:08:09;;;;;;;4.80;3.60;;;6.60;99.90;;;;;;5011912;28;20207;-51
2022/02/16 03:10:35;;;;;;;4.28;3.55;;;6.60;99.90;;;;;;5011537;28;20030;-55
2022/02/16 03:13:00;;;;;;;4.63;3.20;;;6.50;99.90;;;;;;5011821;28;20034;-50
2022/02/16 03:15:26;;;;;;;5.63;3.40;;;6.50;99.90;;;;;;5012032;28;20022;-53
2022/02/16 03:17:52;;;;;;;4.65;3.50;;;6.50;99.90;;;;;;5012270;28;20034;-52
2022/02/16 03:20:17;;;;;;;4.38;3.20;;;6.50;99.90;;;;;;5012735;28;20033;-56
2022/02/16 03:22:43;;;;;;;3.75;3.08;;;6.50;99.90;;;;;;5011711;28;20076;-54
2022/02/16 03:25:11;;;;;;;5.35;3.20;;;6.50;99.90;;;;;;5013509;28;20105;-54
2022/02/16 03:27:37;;;;;;;5.05;3.40;;;6.50;99.90;;;;;;5011709;28;20037;-53
2022/02/16 03:30:08;;;;;;;5.15;3.13;;;6.50;99.90;;;;;;5014596;28;20489;-53
2022/02/16 03:32:35;;;;;;;5.72;3.00;;;6.50;99.90;;;;;;5015490;28;20115;-51
2022/02/16 03:35:01;;;;;;;4.40;2.80;;;6.50;99.90;;;;;;5015957;28;20044;-50
2022/02/16 03:37:26;;;;;;;3.90;3.10;;;6.40;99.90;;;;;;5015580;28;20041;-53
2022/02/16 03:39:52;;;;;;;3.22;2.85;;;6.40;99.90;;;;;;5015736;28;20073;-54
2022/02/16 03:42:19;;;;;;;4.03;3.00;;;6.40;99.90;;;;;;5015265;28;20121;-56
2022/02/16 03:44:44;;;;;;;4.20;3.00;;;6.50;99.90;;;;;;4999248;28;20029;-53
2022/02/16 03:47:10;;;;;;;6.63;2.97;;;6.40;99.90;;;;;;5015554;28;20433;-55
2022/02/16 03:49:36;;;;;;;2.90;2.60;;;6.40;99.90;;;;;;5015959;28;20041;-53
2022/02/16 03:52:01;;;;;;;3.30;2.55;;;6.50;99.90;;;;;;4999908;28;20106;-53
2022/02/16 03:54:27;;;;;;;3.78;2.58;;;6.50;99.90;;;;;;5021085;28;20049;-53
2022/02/16 03:56:53;;;;;;;3.22;2.78;;;6.40;99.90;;;;;;5017013;28;20037;-51
2022/02/16 03:59:18;;;;;;;3.03;2.42;;;6.40;99.90;;;;;;4999178;28;20022;-52
2022/02/16 04:01:44;;;;;;;3.55;2.45;;;6.40;99.90;;;;;;5016048;28;20053;-54
2022/02/16 04:04:10;;;;;;;4.65;2.60;;;6.40;99.90;;;;;;5016102;28;20066;-56
2022/02/16 04:06:36;;;;;;;3.67;2.40;;;6.40;99.90;;;;;;5015536;28;20045;-57
2022/02/16 04:09:01;;;;;;;3.85;2.70;;;6.40;99.90;;;;;;5015164;28;20040;-54
2022/02/16 04:11:27;;;;;;;2.83;2.47;;;6.40;99.90;;;;;;5015284;28;20457;-53
2022/02/16 04:13:54;;;;;;;3.30;2.40;;;6.50;99.90;;;;;;5015312;28;20398;-54
2022/02/16 04:16:21;;;;;;;3.58;2.25;;;6.50;99.90;;;;;;5015149;28;20061;-54
2022/02/16 04:18:46;;;;;;;4.32;2.40;;;6.50;99.90;;;;;;5014971;28;20029;-54
2022/02/16 04:21:12;;;;;;;5.60;2.60;;;6.40;99.90;;;;;;4997608;28;20505;-53
2022/02/16 04:23:38;;;;;;;3.08;2.42;;;6.50;99.90;;;;;;4997249;28;20142;-57
2022/02/16 04:26:03;;;;;;;2.78;2.50;;;6.40;99.90;;;;;;5014596;28;20313;-53
2022/02/16 04:28:29;;;;;;;3.35;2.30;;;6.40;99.90;;;;;;4997528;28;20041;-54
2022/02/16 04:30:54;;;;;;;2.88;2.58;;;6.40;99.90;;;;;;5014572;28;20044;-54
2022/02/16 04:33:20;;;;;;;3.28;2.10;;;6.40;99.90;;;;;;5014600;28;20069;-54
2022/02/16 04:35:46;;;;;;;3.13;2.50;;;6.40;99.90;;;;;;5014436;28;20033;-50
2022/02/16 04:38:11;;;;;;;2.67;2.10;;;6.40;99.90;;;;;;5014081;28;20505;-52
2022/02/16 04:40:38;;;;;;;3.08;2.50;;;6.40;99.90;;;;;;5013802;28;20033;-53
2022/02/16 04:43:05;;;;;;;2.53;2.17;;;6.40;99.90;;;;;;5014152;28;20068;-56
2022/02/16 04:45:32;;;;;;;2.22;2.00;;;6.40;99.90;;;;;;5014132;28;20446;-51
2022/02/16 04:47:59;;;;;;;2.97;2.17;;;6.40;99.90;;;;;;5014355;28;20109;-53
2022/02/16 04:50:24;;;;;;;2.47;2.20;;;6.40;99.90;;;;;;5014288;28;20515;-54
2022/02/16 04:52:54;;;;;;;2.72;1.95;;;6.40;99.90;;;;;;5014125;28;20124;-52
2022/02/16 04:55:21;;;;;;;2.17;1.92;;;6.50;99.90;;;;;;5013979;28;20113;-55
2022/02/16 04:57:46;;;;;;;2.42;1.85;;;6.40;99.90;;;;;;5013989;28;20114;-52
2022/02/16 05:00:13;;;;;;;3.22;2.03;;;6.40;99.90;;;;;;5014024;28;20460;-56
2022/02/16 05:02:38;;;;;;;2.42;1.83;;;6.40;99.90;;;;;;5013979;28;20156;-53
2022/02/16 05:05:04;;;;;;;2.30;2.10;;;6.40;99.90;;;;;;5013685;28;20458;-55
2022/02/16 05:07:30;;;;;;;2.10;1.90;;;6.40;99.90;;;;;;4996099;28;20517;-52
2022/02/16 05:09:56;;;;;;;2.13;1.83;;;6.40;99.90;;;;;;5013677;28;20037;-52
2022/02/16 05:12:21;;;;;;;2.20;1.98;;;6.40;99.90;;;;;;5013620;28;20041;-54
2022/02/16 05:14:47;;;;;;;3.08;1.95;;;6.40;99.90;;;;;;5013884;28;20026;-54
2022/02/16 05:17:12;;;;;;;2.03;1.85;;;6.40;99.90;;;;;;5002261;28;20026;-53
2022/02/16 05:19:38;;;;;;;2.42;1.90;;;6.40;99.90;;;;;;5013462;28;20157;-56
2022/02/16 05:22:04;;;;;;;2.15;1.95;;;6.40;99.90;;;;;;5013854;28;20088;-52
2022/02/16 05:24:29;;;;;;;3.92;2.17;;;6.40;99.90;;;;;;5015607;28;20030;-50
2022/02/16 05:26:55;;;;;;;2.45;1.80;;;6.40;99.90;;;;;;5015262;28;20041;-51
2022/02/16 05:29:21;;;;;;;2.88;2.42;;;6.40;99.90;;;;;;5014828;28;20017;-51
2022/02/16 05:31:47;;;;;;;2.97;2.20;;;6.40;99.90;;;;;;5014862;28;20425;-54
2022/02/16 05:34:12;;;;;;;2.55;2.08;;;6.40;99.90;;;;;;5014888;28;20034;-54
2022/02/16 05:36:38;;;;;;;3.03;2.13;;;6.40;99.90;;;;;;5014397;28;20100;-52
2022/02/16 05:39:05;;;;;;;1.98;1.80;;;6.40;99.90;;;;;;5015189;28;20033;-54
2022/02/16 05:41:31;;;;;;;1.70;1.60;;;6.40;99.90;;;;;;5014487;28;20034;-55
2022/02/16 05:43:57;;;;;;;2.90;2.00;;;6.40;99.90;;;;;;5014127;28;20038;-53
2022/02/16 05:46:23;;;;;;;2.20;1.80;;;6.40;99.90;;;;;;5028426;28;20029;-51
2022/02/16 05:48:49;;;;;;;2.00;1.73;;;6.40;99.90;;;;;;5035444;28;20090;-56
2022/02/16 05:51:14;;;;;;;2.80;1.80;;;6.40;99.90;;;;;;5022444;28;20136;-53
2022/02/16 05:53:40;;;;;;;2.53;1.88;;;6.40;99.90;;;;;;5016859;28;20042;-56
2022/02/16 05:56:06;;;;;;;2.35;2.03;;;6.40;99.90;;;;;;5014940;28;20567;-56
2022/02/16 05:58:31;;;;;;;2.70;2.08;;;6.40;99.90;;;;;;5015183;28;20040;-54
2022/02/16 06:01:00;;;;;;;2.38;1.80;;;6.40;99.90;;;;;;5014836;28;20029;-52
2022/02/16 06:03:25;;;;;;;2.70;2.00;;;6.40;99.90;;;;;;5013423;28;20044;-54
2022/02/16 06:05:51;;;;;;;3.08;2.10;;;6.40;99.90;;;;;;5013950;28;20030;-55
2022/02/16 06:08:17;;;;;;;2.08;1.63;;;6.40;99.90;;;;;;5014470;28;20030;-53
2022/02/16 06:10:43;;;;;;;2.45;1.58;;;6.40;99.90;;;;;;5015242;28;20561;-53
2022/02/16 06:13:08;;;;;;;1.80;1.60;;;6.30;99.90;;;;;;5013856;28;20072;-57
2022/02/16 06:15:34;;;;;;;1.92;1.67;;;6.40;99.90;;;;;;5014009;28;20030;-55
2022/02/16 06:17:59;;;;;;;1.55;1.45;;;6.40;99.90;;;;;;5014728;28;20413;-56
2022/02/16 06:20:26;;;;;;;1.83;1.65;;;6.40;99.90;;;;;;5014957;28;20030;-56
2022/02/16 06:22:53;;;;;;;2.13;1.70;;;6.40;99.90;;;;;;5014144;28;20036;-52
2022/02/16 06:25:19;;;;;;;1.60;1.48;;;6.40;99.90;;;;;;5014247;28;20037;-55
2022/02/16 06:27:45;;;;;;;1.98;1.77;;;6.30;99.90;;;;;;4996806;28;20038;-54
2022/02/16 06:30:11;;;;;;;2.97;1.90;;;6.40;99.90;;;;;;5014494;28;20482;-56
2022/02/16 06:32:36;;;;;;;1.70;1.55;;;6.40;99.90;;;;;;5014404;28;20109;-54
2022/02/16 06:35:03;;;;;;;2.55;2.00;;;6.40;99.90;;;;;;5014282;28;20577;-56
2022/02/16 06:37:29;;;;;;;3.33;1.60;;;6.40;99.90;;;;;;5013828;28;20073;-55
2022/02/16 06:39:54;;;;;;;2.70;1.70;;;6.40;99.90;;;;;;5013147;28;20060;-55
2022/02/16 06:42:20;;;;;;;2.65;1.70;;;6.40;99.90;;;;;;5013317;28;20646;-53
2022/02/16 06:44:46;;;;;;;2.13;1.60;;;6.40;99.90;;;;;;5014463;28;20041;-55
2022/02/16 06:47:11;;;;;;;1.80;1.50;;;6.40;99.90;;;;;;5013983;28;20041;-56
2022/02/16 06:49:38;;;;;;;2.28;1.63;;;6.50;99.90;;;;;;4995623;28;20034;-55
2022/02/16 06:52:04;;;;;;;1.92;1.70;;;6.50;99.90;;;;;;5013790;28;20053;-54
2022/02/16 06:54:31;;;;;;;1.50;1.40;;;6.40;99.90;;;;;;5014117;28;20046;-55
2022/02/16 06:56:58;;;;;;;3.95;2.08;;;6.40;99.90;;;;;;5013662;28;20099;-50
2022/02/16 06:59:23;;;;;;;3.22;1.95;;;6.40;99.90;;;;;;5013337;28;20555;-55
2022/02/16 07:01:49;;;;;;;3.05;1.48;;;6.50;99.90;;;;;;5013730;28;20113;-53
2022/02/16 07:04:14;;;;;;;2.22;1.60;;;6.40;99.90;;;;;;5012788;28;20072;-53
2022/02/16 07:06:40;;;;;;;2.95;1.50;;;6.50;99.90;;;;;;5014731;28;20053;-58
2022/02/16 07:09:06;;;;;;;3.22;1.85;;;6.50;99.90;;;;;;5014542;28;20042;-56
2022/02/16 07:11:31;;;;;;;1.83;1.50;;;6.50;99.90;;;;;;5013077;28;20494;-55
2022/02/16 07:13:57;;;;;;;5.32;2.60;;;6.50;99.90;;;;;;5012449;28;20096;-54
2022/02/16 07:16:22;;;;;;;2.97;1.73;;;6.50;99.90;;;;;;5012843;28;20049;-56
2022/02/16 07:18:48;;;;;;;2.72;1.55;;;6.60;99.90;;;;;;5013130;28;20034;-56
2022/02/16 07:21:14;;;;;;;2.97;2.03;;;6.60;99.90;;;;;;5012874;28;20113;-54
2022/02/16 07:23:39;;;;;;;4.25;1.70;;;6.60;99.90;;;;;;5013188;28;20026;-53
2022/02/16 07:26:06;;;;;;;4.68;2.08;;;6.60;99.90;;;;;;5013759;28;20034;-52
2022/02/16 07:28:32;;;;;;;2.00;1.70;;;6.70;99.90;;;;;;5013137;28;20037;-56
2022/02/16 07:30:58;;;;;;;5.63;2.58;;;6.60;99.90;;;;;;5012925;28;20037;-56
2022/02/16 07:33:24;;;;;;;2.40;2.05;;;6.60;99.90;;;;;;5013145;28;20033;-55
2022/02/16 07:35:50;;;;;;;1.45;1.13;;;6.60;99.90;;;;;;5013740;28;20034;-54
2022/02/16 07:38:16;;;;;;;3.80;1.80;;;6.50;99.90;;;;;;5013993;28;20389;-55
2022/02/16 07:40:42;;;;;;;3.83;1.80;;;6.50;99.90;;;;;;5015281;28;20105;-53
2022/02/16 07:43:07;;;;;;;3.35;1.80;;;6.60;99.90;;;;;;5013011;28;20057;-55
2022/02/16 07:45:33;;;;;;;4.03;1.52;;;6.60;99.90;;;;;;4976512;28;20054;-54
2022/02/16 07:48:02;;;;;;;3.58;2.17;;;6.70;99.90;;;;;;5004530;28;20072;-55
2022/02/16 07:50:28;;;;;;;4.65;1.90;;;6.70;99.90;;;;;;5012834;28;20208;-54
2022/02/16 07:52:55;;;;;;;1.73;1.50;;;6.80;99.90;;;;;;5008892;28;20109;-55
2022/02/16 07:55:21;;;;;;;2.58;1.92;;;6.70;99.90;;;;;;5012010;28;20041;-59
2022/02/16 07:57:47;;;;;;;2.85;2.03;;;6.80;99.90;;;;;;5012135;28;20025;-59
2022/02/16 08:00:13;;;;;;;5.18;1.92;;;7.10;99.90;;;;;;5012134;28;20108;-58
2022/02/16 08:02:39;;;;;;;4.10;1.67;;;7.40;99.90;;;;;;5012789;28;20034;-59
2022/02/16 08:05:05;;;;;;;14.23;5.53;;;7.40;99.90;;;;;;5014081;28;20061;-60
2022/02/16 08:07:30;;;;;;;7.22;1.90;;;7.60;99.90;;;;;;5009586;28;20045;-58
2022/02/16 08:09:56;;;;;;;4.40;1.35;;;7.60;99.90;;;;;;5010501;28;20054;-61
2022/02/16 08:12:21;;;;;;;6.95;3.33;;;7.60;99.90;;;;;;5018163;28;20029;-59
2022/02/16 08:14:47;;;;;;;5.45;2.53;;;7.60;99.90;;;;;;5009538;28;20034;-58
2022/02/16 08:17:13;;;;;;;1.15;1.05;;;7.50;99.90;;;;;;5003107;28;20111;-57
2022/02/16 08:19:38;;;;;;;1.27;1.17;;;7.30;99.90;;;;;;5015480;28;20112;-57
2022/02/16 08:22:04;;;;;;;5.40;2.10;;;7.10;99.90;;;;;;5012155;28;20069;-56
2022/02/16 08:24:30;;;;;;;3.22;1.88;;;7.00;99.90;;;;;;5014683;28;20385;-54
2022/02/16 08:26:56;;;;;;;4.85;2.92;;;6.90;99.90;;;;;;5015296;28;20740;-59
2022/02/16 08:29:24;;;;;;;2.08;1.50;;;6.90;99.90;;;;;;5015421;28;20037;-57
2022/02/16 08:31:50;;;;;;;1.63;1.35;;;7.00;99.90;;;;;;5015405;28;20033;-55
2022/02/16 08:34:16;;;;;;;1.77;1.45;;;7.10;99.90;;;;;;5015277;28;20029;-58
2022/02/16 08:36:42;;;;;;;1.17;1.08;;;7.00;99.90;;;;;;5014019;28;20034;-57
2022/02/16 08:39:08;;;;;;;1.52;1.40;;;7.10;99.90;;;;;;5010507;28;20092;-58
2022/02/16 08:41:33;;;;;;;1.45;1.35;;;7.10;99.90;;;;;;5015660;28;20022;-56
2022/02/16 08:43:59;;;;;;;1.33;1.13;;;7.10;99.90;;;;;;5014924;28;20532;-57
2022/02/16 08:46:25;;;;;;;2.90;1.15;;;7.10;99.90;;;;;;5013040;28;20129;-54
2022/02/16 08:48:50;;;;;;;1.30;1.20;;;7.20;99.90;;;;;;5011572;28;20458;-54
2022/02/16 08:51:16;;;;;;;1.67;1.25;;;7.20;99.90;;;;;;5017913;28;20092;-56
2022/02/16 08:53:42;;;;;;;2.67;1.52;;;7.30;99.90;;;;;;5014691;28;20034;-57
2022/02/16 08:56:09;;;;;;;3.72;2.35;;;7.30;99.90;;;;;;5017572;28;20421;-58
2022/02/16 08:58:35;;;;;;;2.03;1.40;;;7.40;99.90;;;;;;5014172;28;20072;-54
2022/02/16 09:01:01;;;;;;;2.17;1.65;;;7.50;99.90;;;;;;5015595;28;20109;-57
2022/02/16 09:03:29;;;;;;;2.72;1.30;;;7.50;99.90;;;;;;5014958;28;20505;-58
2022/02/16 09:05:56;;;;;;;1.40;1.23;;;7.50;99.90;;;;;;5015036;28;20037;-58
2022/02/16 09:08:22;;;;;;;1.88;1.42;;;7.60;99.90;;;;;;5015102;28;20029;-53
2022/02/16 09:10:47;;;;;;;2.03;1.10;;;7.60;99.90;;;;;;4997026;28;20049;-57
2022/02/16 09:13:13;;;;;;;1.05;1.00;;;7.60;99.90;;;;;;5015212;28;20034;-58
2022/02/16 09:15:39;;;;;;;2.20;1.40;;;7.60;99.90;;;;;;5012299;28;20101;-55
2022/02/16 09:18:05;;;;;;;2.08;1.45;;;7.60;99.90;;;;;;4997142;28;20117;-57
2022/02/16 09:20:32;;;;;;;2.20;1.73;;;7.60;99.90;;;;;;5013531;28;20025;-55
2022/02/16 09:22:57;;;;;;;7.90;3.90;;;7.70;99.90;;;;;;5012944;28;20018;-61
2022/02/16 09:25:23;;;;;;;5.53;3.42;;;7.70;99.90;;;;;;5015215;28;20022;-57
2022/02/16 09:27:49;;;;;;;1.30;1.20;;;7.70;99.90;;;;;;5014025;28;20042;-57
2022/02/16 09:30:15;;;;;;;1.35;1.25;;;7.80;99.90;;;;;;5016014;28;20073;-59
2022/02/16 09:32:41;;;;;;;1.77;1.23;;;7.80;99.90;;;;;;4997109;28;20109;-58
2022/02/16 09:35:07;;;;;;;3.63;1.52;;;7.70;99.90;;;;;;5016125;28;20029;-57
2022/02/16 09:37:32;;;;;;;2.80;2.05;;;7.80;99.90;;;;;;5014702;28;20044;-55
2022/02/16 09:39:58;;;;;;;2.17;1.40;;;7.80;99.90;;;;;;5015023;28;20416;-58
2022/02/16 09:42:24;;;;;;;1.35;1.27;;;7.80;99.90;;;;;;5013750;28;20037;-57
2022/02/16 09:44:57;;;;;;;1.55;1.42;;;7.80;99.90;;;;;;5016360;28;20041;-57
2022/02/16 09:47:24;;;;;;;1.90;1.55;;;7.90;99.90;;;;;;5009122;28;20034;-59
2022/02/16 09:49:50;;;;;;;2.70;1.48;;;7.90;99.90;;;;;;5014772;28;20053;-54
2022/02/16 09:52:15;;;;;;;1.92;1.58;;;7.90;99.90;;;;;;5016890;28;20050;-56
2022/02/16 09:54:41;;;;;;;2.20;1.60;;;8.00;99.90;;;;;;5019871;28;20033;-57
2022/02/16 09:57:07;;;;;;;2.17;1.75;;;8.00;99.90;;;;;;5014466;28;20047;-60
2022/02/16 09:59:34;;;;;;;1.73;1.63;;;8.10;99.90;;;;;;5008064;28;20618;-56
2022/02/16 10:02:08;;;;;;;2.75;1.35;;;8.10;99.90;;;;;;5014990;28;20030;-55
2022/02/16 10:04:36;;;;;;;2.13;1.55;;;8.10;99.90;;;;;;5015083;28;20036;-58
2022/02/16 10:07:23;;;;;;;2.60;1.65;;;8.00;99.90;;;;;;5013928;28;20409;-59
2022/02/16 10:09:49;;;;;;;4.63;1.48;;;8.10;99.90;;;;;;5010970;28;20049;-60
2022/02/16 10:12:15;;;;;;;3.80;2.03;;;8.10;99.90;;;;;;5010644;28;20038;-58
2022/02/16 10:14:40;;;;;;;1.52;1.42;;;8.10;99.90;;;;;;4997037;28;20382;-57
2022/02/16 10:17:23;;;;;;;2.47;1.60;;;8.10;99.90;;;;;;5010582;28;20037;-57
2022/02/16 10:19:54;;;;;;;1.77;1.52;;;8.20;99.90;;;;;;5005258;28;20117;-58
2022/02/16 10:22:22;;;;;;;3.28;1.80;;;8.20;99.90;;;;;;5011517;28;20022;-58
2022/02/16 10:24:48;;;;;;;1.73;1.60;;;8.30;99.90;;;;;;5012795;28;20050;-58
2022/02/16 10:27:15;;;;;;;2.95;2.00;;;8.30;99.90;;;;;;4995536;28;20045;-61
2022/02/16 10:29:43;;;;;;;2.25;1.63;;;8.40;99.90;;;;;;5013224;28;20076;-57
2022/02/16 10:32:09;;;;;;;2.88;1.80;;;8.40;99.90;;;;;;5012849;28;20137;-58
2022/02/16 10:34:53;;;;;;;2.88;1.70;;;8.40;99.90;;;;;;5012215;28;20052;-56
2022/02/16 10:37:35;;;;;;;2.90;1.80;;;8.50;99.90;;;;;;5010456;28;20401;-60
2022/02/16 10:40:11;;;;;;;4.63;1.90;;;8.50;99.90;;;;;;5014339;28;20061;-53
2022/02/16 10:42:56;;;;;;;2.00;1.85;;;8.50;99.90;;;;;;5013218;28;20021;-55
2022/02/16 10:45:24;;;;;;;2.13;1.85;;;8.60;99.90;;;;;;5013246;28;20033;-56
2022/02/16 10:47:54;;;;;;;2.72;1.83;;;8.60;99.90;;;;;;5010825;28;20064;-55
2022/02/16 10:50:23;;;;;;;3.22;1.63;;;8.60;99.90;;;;;;5012003;28;20072;-58
2022/02/16 10:52:58;;;;;;;5.82;3.65;;;8.60;99.90;;;;;;5003898;28;20544;-59
2022/02/16 10:55:37;;;;;;;4.32;2.08;;;8.60;99.90;;;;;;5011923;28;20136;-54
2022/02/16 10:58:05;;;;;;;1.88;1.60;;;8.60;99.90;;;;;;5012207;28;20073;-55
2022/02/16 11:00:33;;;;;;;1.70;1.60;;;8.60;99.90;;;;;;4995184;28;20041;-58
2022/02/16 11:03:00;;;;;;;2.58;1.85;;;8.60;99.90;;;;;;5014750;28;20096;-57
2022/02/16 11:05:27;;;;;;;2.95;1.90;;;8.70;99.90;;;;;;4995697;28;20453;-55
2022/02/16 11:07:54;;;;;;;3.25;1.92;;;8.60;99.90;;;;;;5012719;28;20041;-57
2022/02/16 11:10:21;;;;;;;3.65;1.70;;;8.60;99.90;;;;;;5014860;28;20095;-55
2022/02/16 11:12:47;;;;;;;1.70;1.60;;;8.70;99.90;;;;;;5003795;28;20030;-60
2022/02/16 11:15:14;;;;;;;2.33;1.90;;;8.70;99.90;;;;;;4995442;28;20041;-56
2022/02/16 11:17:40;;;;;;;3.22;2.10;;;8.70;99.90;;;;;;5014117;28;20038;-54
2022/02/16 11:20:32;;;;;;;2.03;1.77;;;8.80;99.90;;;;;;5007264;28;20022;-56
2022/02/16 11:23:00;;;;;;;1.90;1.48;;;8.80;99.90;;;;;;5008149;28;20041;-54
2022/02/16 11:25:37;;;;;;;1.75;1.63;;;8.80;99.90;;;;;;5011013;28;20029;-53
2022/02/16 11:28:11;;;;;;;1.60;1.50;;;8.90;99.90;;;;;;5000521;28;20049;-57
2022/02/16 11:30:38;;;;;;;1.70;1.40;;;8.90;99.90;;;;;;4992163;28;20049;-55
2022/02/16 11:33:19;;;;;;;4.28;1.90;;;9.00;99.90;;;;;;5013957;28;20353;-55
2022/02/16 11:35:52;;;;;;;2.85;1.70;;;9.00;99.90;;;;;;5002279;28;20059;-56
2022/02/16 11:38:20;;;;;;;1.65;1.42;;;9.00;99.90;;;;;;5020067;28;20078;-55
2022/02/16 11:40:52;;;;;;;3.42;1.48;;;9.00;99.90;;;;;;5015664;28;20470;-57
2022/02/16 11:43:22;;;;;;;1.00;1.00;;;9.00;99.90;;;;;;5012251;28;20541;-55
2022/02/16 11:45:55;;;;;;;4.68;2.58;;;9.10;99.90;;;;;;5014898;28;20045;-56
2022/02/16 11:48:43;;;;;;;1.02;1.02;;;9.00;99.90;;;;;;5012452;28;20565;-58
2022/02/16 11:51:42;;;;;;;1.98;1.67;;;9.10;99.90;;;;;;5011921;28;20539;-56
2022/02/16 11:54:44;;;;;;;1.27;1.17;;;9.20;99.90;;;;;;4979667;28;20046;-57
2022/02/16 11:57:38;;;;;;;2.67;1.25;;;9.20;99.90;;;;;;4988460;28;20052;-57
2022/02/16 12:00:11;;;;;;;1.58;1.23;;;9.20;99.90;;;;;;5010172;28;20084;-56
2022/02/16 12:02:55;;;;;;;1.30;1.20;;;9.30;99.90;;;;;;5016648;28;20021;-56
2022/02/16 12:05:45;;;;;;;4.03;1.53;;;9.30;99.90;;;;;;4998614;28;20076;-57
2022/02/16 12:08:16;;;;;;;2.30;1.20;;;9.40;99.90;;;;;;5014664;28;20261;-54
2022/02/16 12:10:44;;;;;;;1.15;1.10;;;9.50;99.90;;;;;;5016425;28;20045;-57
2022/02/16 12:13:10;;;;;;;2.05;1.33;;;9.60;99.90;;;;;;4997704;28;20394;-57
2022/02/16 12:15:36;;;;;;;3.78;1.10;;;9.70;99.90;;;;;;5013913;28;20034;-55
2022/02/16 12:18:03;;;;;;;1.98;1.10;;;9.80;99.90;;;;;;5014520;28;20038;-57
2022/02/16 12:20:28;;;;;;;0.82;0.82;;;9.80;99.90;;;;;;5016452;28;20022;-58
2022/02/16 12:23:01;;;;;;;1.35;1.27;;;9.80;99.90;;;;;;5014439;28;20026;-58
2022/02/16 12:25:27;;;;;;;1.27;1.17;;;9.80;99.90;;;;;;5025636;28;20030;-59
2022/02/16 12:27:59;;;;;;;1.67;1.40;;;9.80;99.90;;;;;;4999957;28;20491;-57
2022/02/16 12:30:40;;;;;;;1.35;1.08;;;9.80;99.90;;;;;;5015837;28;20061;-57
2022/02/16 12:33:23;;;;;;;1.25;1.00;;;9.80;99.90;;;;;;5016394;28;20072;-57
2022/02/16 12:35:49;;;;;;;2.22;1.55;;;9.90;99.90;;;;;;5014727;28;20034;-57
2022/02/16 12:38:26;;;;;;;1.15;1.13;;;10.00;99.90;;;;;;5015099;28;20061;-60
2022/02/16 12:40:52;;;;;;;1.02;0.95;;;10.10;99.90;;;;;;4999047;28;20038;-58
2022/02/16 12:43:19;;;;;;;2.13;1.23;;;10.20;99.90;;;;;;5015688;28;20029;-57
2022/02/16 12:45:47;;;;;;;1.30;1.20;;;10.10;99.90;;;;;;5015717;28;20026;-56
2022/02/16 12:48:13;;;;;;;2.45;1.13;;;10.20;99.90;;;;;;5015554;28;20117;-58
2022/02/16 12:50:39;;;;;;;1.50;1.35;;;10.20;99.90;;;;;;4996492;28;20121;-59
2022/02/16 12:53:07;;;;;;;0.95;0.90;;;10.20;99.90;;;;;;5015291;28;20033;-56
2022/02/16 12:55:44;;;;;;;3.20;1.23;;;10.30;99.90;;;;;;5023348;28;20021;-54
2022/02/16 12:58:12;;;;;;;6.93;1.65;;;10.30;99.90;;;;;;5015288;28;20117;-59